METAR Data
IDs: Format: Raw Decoded Include TAF

Data at: 0921 UTC 18 Jan 2019

PAQH 180856Z AUTO 35010KT 10SM OVC008 M06/M07 A2991 RMK AO2 SNE50 SLP128 P0000 60000 T10611072 410441078 51014 FZRANO
PAQH 180844Z AUTO 35010KT 9SM -SN OVC008 M06/M07 A2990 RMK AO2 P0000 FZRANO
PAQH 180810Z AUTO 35013KT 8SM -SN OVC014 M06/M07 A2990 RMK AO2 P0000 FZRANO
PAQH 180756Z AUTO 35015KT 4SM -SN BR BKN009 OVC014 M06/M07 A2990 RMK AO2 SLP124 P0000 T10611072 FZRANO
PAQH 180656Z AUTO 34012KT 6SM -SN BR OVC009 M06/M07 A2988 RMK AO2 SLP119 P0000 T10611067 FZRANO
PAQH 180642Z AUTO 34010KT 6SM -SN BR BKN009 BKN017 OVC028 M06/M07 A2988 RMK AO2 P0000 FZRANO
PAQH 180635Z AUTO 34010KT 4SM -SN BR BKN011 BKN017 OVC028 M06/M07 A2988 RMK AO2 P0000 FZRANO
PAQH 180628Z AUTO 34010KT 2 1/2SM -SN BR FEW011 BKN022 OVC037 M06/M07 A2988 RMK AO2 P0000 FZRANO
PAQH 180556Z AUTO 33014KT 4SM -SN BR OVC026 M07/M08 A2987 RMK AO2 SLP114 P0000 60000 T10671078 11061 21078 53013 FZRANO
PAQH 180540Z AUTO 34011KT 7SM -SN SCT010 BKN026 OVC035 M07/M08 A2986 RMK AO2 P0000 FZRANO
PAQH 180456Z AUTO 34015KT 9SM -SN OVC010 M07/M08 A2985 RMK AO2 SNB22 SLP109 P0000 T10671083 FZRANO
PAQH 180443Z AUTO 35013KT 9SM -SN BKN010 OVC035 M07/M08 A2985 RMK AO2 SNB22 P0000 FZRANO
PAQH 180256Z AUTO 33012KT 9SM OVC035 M08/M09 A2983 RMK AO2 SNB17E52 SLP101 P0000 60000 T10781094 53025 FZRANO
PAQH 180210Z AUTO 32012KT 10SM SCT009 OVC037 M08/M09 A2981 RMK AO2 FZRANO
PAQH 180156Z AUTO 32013KT 10SM BKN009 OVC037 M08/M09 A2981 RMK AO2 SLP093 T10781094 FZRANO
PAQH 180130Z AUTO 32009KT 10SM BKN009 OVC038 M07/M09 A2980 RMK AO2 FZRANO
PAQH 180108Z AUTO 32013KT 10SM FEW007 OVC040 M07/M08 A2978 RMK AO2 FZRANO
PAQH 180056Z AUTO 32010KT 10SM OVC040 M07/M08 A2977 RMK AO2 SLP083 T10671083 FZRANO
PAQH 172356Z AUTO 32014KT 10SM BKN041 M06/M07 A2975 RMK AO2 SLP075 T10611072 11044 21061 52012 FZRANO
PAQH 172256Z AUTO 31010KT 10SM OVC041 M05/M07 A2974 RMK AO2 SLP072 T10501067 FZRANO
PAQH 172156Z AUTO 33011KT 10SM OVC039 M05/M06 A2973 RMK AO2 SLP068 T10501061 FZRANO
PAQH 172056Z AUTO 32008KT 10SM SCT033 M05/M06 A2972 RMK AO2 SLP064 T10501061 51020 FZRANO
PAQH 172009Z AUTO 35009KT 10SM BKN031 M05/M06 A2970 RMK AO2 FZRANO
PAQH 171956Z AUTO 35010KT 10SM BKN028 M05/M06 A2970 RMK AO2 SLP057 T10501061 FZRANO
PAQH 171856Z AUTO 34007KT 10SM OVC025 M05/M06 A2969 RMK AO2 SLP053 T10501061 FZRANO
PAQH 171756Z AUTO 34009KT 10SM OVC027 M06/M07 A2966 RMK AO2 SLP044 60000 T10561067 11044 21061 51011 FZRANO
PAQH 171728Z AUTO 32008KT 10SM BKN027 M06/M07 A2965 RMK AO2 FZRANO
PAQH 171656Z AUTO 31008KT 10SM SCT028 M06/M07 A2965 RMK AO2 SLP040 T10561072 FZRANO
PAQH 171653Z AUTO 33009KT 10SM SCT028 M06/M07 A2965 RMK AO2 FZRANO
PAQH 171641Z AUTO 32008KT 10SM BKN028 M06/M07 A2964 RMK AO2 FZRANO
PAQH 171556Z AUTO 31008KT 10SM OVC024 M05/M06 A2963 RMK AO2 SLP033 T10501061 FZRANO
PAQH 171456Z AUTO 33008KT 10SM OVC024 M05/M06 A2962 RMK AO2 SLP031 60000 T10501061 51013 FZRANO
PAQH 171442Z AUTO 35007KT 10SM BKN024 M06/M07 A2962 RMK AO2 FZRANO
PAQH 171433Z AUTO 34007KT 10SM SCT024 M06/M07 A2962 RMK AO2 FZRANO
PAQH 171356Z AUTO 33008KT 10SM OVC024 M05/M06 A2961 RMK AO2 SLP028 T10501061 FZRANO
PAQH 171305Z AUTO 33006KT 10SM BKN024 BKN033 OVC100 M05/M06 A2960 RMK AO2 FZRANO
PAQH 171256Z AUTO 33007KT 10SM SCT024 BKN036 OVC100 M06/M07 A2960 RMK AO2 SNB27E42 SLP024 P0000 T10561067 FZRANO
PAQH 171205Z AUTO 34006KT 10SM SCT025 BKN034 OVC075 M06/M07 A2959 RMK AO2 FZRANO
PAQH 171156Z AUTO 32006KT 10SM BKN025 OVC075 M06/M07 A2958 RMK AO2 SNB1058E27 SLP018 P0000 60000 T10561067 11056 21072 53010 FZRANO
PAQH 171140Z AUTO 36007KT 10SM BKN023 BKN038 OVC070 M06/M07 A2958 RMK AO2 SNB1058E27 P0000 FZRANO
PAQH 171056Z AUTO 33005KT 10SM BKN060 OVC075 M06/M07 A2957 RMK AO2 SLP015 T10611072 FZRANO
PAQH 170956Z AUTO 32007KT 10SM FEW055 BKN100 M07/M08 A2956 RMK AO2 SNE21 SLP009 P0000 T10671078 FZRANO
PAQH 170856Z AUTO 32008KT 9SM -SN FEW029 BKN070 OVC110 M07/M08 A2956 RMK AO2 SNB03E18B34 SLP008 P0000 60000 T10671078 410281111 53012 FZRANO
PAQH 170756Z AUTO 34005KT 10SM FEW065 BKN090 M07/M08 A2954 RMK AO2 SLP004 T10721083 FZRANO
PAQH 170656Z AUTO 33008KT 10SM SCT080 BKN100 M07/M08 A2953 RMK AO2 SNE05 SLP998 P0000 T10671083 FZRANO
PAQH 170556Z AUTO 32010KT 9SM -SN SCT030 BKN046 OVC065 M07/M08 A2952 RMK AO2 SLP997 P0000 60000 T10671083 11067 21089 51004 FZRANO
PAQH 170456Z AUTO 33009KT 8SM -SN SCT028 OVC038 M08/M09 A2952 RMK AO2 SLP996 P0000 T10781089 FZRANO
PAQH 170356Z AUTO 33006KT 9SM -SN SCT038 BKN047 OVC055 M07/M09 A2951 RMK AO2 SLP995 P0000 T10721089 FZRANO
PAQH 170256Z AUTO 34008KT 9SM -SN BKN048 OVC070 M08/M09 A2951 RMK AO2 SNB0159 SLP993 P0000 60000 T10781094 53001 FZRANO
PAQH 170156Z AUTO 31008KT 10SM SCT039 OVC049 M08/M10 A2950 RMK AO2 SNB16E44 SLP991 P0000 T10831100 FZRANO
PAQH 170056Z AUTO 34008KT 10SM OVC045 M09/M11 A2951 RMK AO2 SLP992 T10891106 FZRANO
PAQH 162356Z AUTO 32007KT 10SM OVC043 M09/M11 A2950 RMK AO2 SLP991 60000 T10891106 11089 21111 58009 FZRANO